<?xml version="1.0" encoding="UTF-8"?>
<gpx xmlns="http://www.topografix.com/GPX/1/1" xmlns:gpsies="http://www.gpsies.com/GPX/1/0" creator="GPSies http://www.gpsies.com - Erzgebirgstraverse Abschnitt 6 Keilberg - J&amp;#246;hstadt" version="1.1" xmlns:xsi="http://www.w3.org/2001/XMLSchema-instance" xsi:schemaLocation="http://www.topografix.com/GPX/1/1 http://www.topografix.com/GPX/1/1/gpx.xsd http://www.gpsies.com/GPX/1/0 http://www.gpsies.com/gpsies.xsd">
  <metadata>
    <name>Erzgebirgstraverse Abschnitt 6 Keilberg - Jöhstadt</name>
    <author>
      <name>RGanzert</name>
      <link href="http://www.gpsies.com/mapUser.do?username=RGanzert">
        <text>RGanzert on GPSies.com</text>
        <type>GPSiesUserOnWeb</type>
      </link>
    </author>
    <link href="http://www.gpsies.com/map.do?fileId=xjrjmxbmgqqfgtsg">
      <text>Erzgebirgstraverse Abschnitt 6 Keilberg - Jöhstadt on GPSies.com</text>
      <type>trackOnWeb</type>
    </link>
    <time>2016-06-20T17:15:38Z</time>
    <extensions>
      <gpsies:property>one-way trip</gpsies:property>
      <gpsies:trackLengthMeter>17587.52736520603</gpsies:trackLengthMeter>
      <gpsies:totalAscentMeter>123.0</gpsies:totalAscentMeter>
      <gpsies:totalDescentMeter>642.0</gpsies:totalDescentMeter>
      <gpsies:minHeightMeter>709.0</gpsies:minHeightMeter>
      <gpsies:maxHeightMeter>1244.0</gpsies:maxHeightMeter>
    </extensions>
  </metadata>
  <trk>
    <name>Erzgebirgstraverse Abschnitt 6 Keilberg - Jöhstadt on GPSies.com</name>
    <link href="http://www.gpsies.com/map.do?fileId=xjrjmxbmgqqfgtsg">
      <type>trackOnWeb</type>
    </link>
    <link href="http://www.gpsies.com/charts/xj/map/xjrjmxbmgqqfgtsg_map.png">
      <type>elevationChartUrlMap</type>
    </link>
    <link href="http://www.gpsies.com/charts/xj/mapThumb/xjrjmxbmgqqfgtsg_mapThumb.png">
      <type>elevationChartUrlMapThumb</type>
    </link>
    <link href="http://www.gpsies.com/charts/xj/tab/xjrjmxbmgqqfgtsg_tab.png">
      <type>elevationChartUrlTab</type>
    </link>
    <trkseg>
      <trkpt lat="50.39557900" lon="12.96785290">
        <ele>1243.0000</ele>
        <time>2010-01-01T00:00:00Z</time>
      </trkpt>
      <trkpt lat="50.39581500" lon="12.96842150">
        <ele>1244.0000</ele>
        <time>2010-01-01T00:00:17Z</time>
      </trkpt>
      <trkpt lat="50.39592780" lon="12.96836790">
        <ele>1244.0000</ele>
        <time>2010-01-01T00:00:22Z</time>
      </trkpt>
      <trkpt lat="50.39614670" lon="12.96886680">
        <ele>1240.0000</ele>
        <time>2010-01-01T00:00:37Z</time>
      </trkpt>
      <trkpt lat="50.39626640" lon="12.96968220">
        <ele>1232.0000</ele>
        <time>2010-01-01T00:00:58Z</time>
      </trkpt>
      <trkpt lat="50.39626000" lon="12.96968000">
        <ele>1232.0000</ele>
        <time>2010-01-01T00:00:59Z</time>
      </trkpt>
      <trkpt lat="50.39628000" lon="12.97012000">
        <ele>1228.0000</ele>
        <time>2010-01-01T00:01:10Z</time>
      </trkpt>
      <trkpt lat="50.39634000" lon="12.97075000">
        <ele>1219.0000</ele>
        <time>2010-01-01T00:01:26Z</time>
      </trkpt>
      <trkpt lat="50.39637000" lon="12.97138000">
        <ele>1213.0000</ele>
        <time>2010-01-01T00:01:42Z</time>
      </trkpt>
      <trkpt lat="50.39636000" lon="12.97188000">
        <ele>1208.0000</ele>
        <time>2010-01-01T00:01:55Z</time>
      </trkpt>
      <trkpt lat="50.39632000" lon="12.97226000">
        <ele>1203.0000</ele>
        <time>2010-01-01T00:02:05Z</time>
      </trkpt>
      <trkpt lat="50.39621000" lon="12.97262000">
        <ele>1197.0000</ele>
        <time>2010-01-01T00:02:15Z</time>
      </trkpt>
      <trkpt lat="50.39588000" lon="12.97327000">
        <ele>1187.0000</ele>
        <time>2010-01-01T00:02:36Z</time>
      </trkpt>
      <trkpt lat="50.39587000" lon="12.97340000">
        <ele>1185.0000</ele>
        <time>2010-01-01T00:02:40Z</time>
      </trkpt>
      <trkpt lat="50.39586000" lon="12.97348000">
        <ele>1184.0000</ele>
        <time>2010-01-01T00:02:42Z</time>
      </trkpt>
      <trkpt lat="50.39591000" lon="12.97366000">
        <ele>1182.0000</ele>
        <time>2010-01-01T00:02:47Z</time>
      </trkpt>
      <trkpt lat="50.39608000" lon="12.97410000">
        <ele>1175.0000</ele>
        <time>2010-01-01T00:03:00Z</time>
      </trkpt>
      <trkpt lat="50.39633000" lon="12.97463000">
        <ele>1165.0000</ele>
        <time>2010-01-01T00:03:17Z</time>
      </trkpt>
      <trkpt lat="50.39665000" lon="12.97515000">
        <ele>1155.0000</ele>
        <time>2010-01-01T00:03:35Z</time>
      </trkpt>
      <trkpt lat="50.39721000" lon="12.97640000">
        <ele>1134.0000</ele>
        <time>2010-01-01T00:04:14Z</time>
      </trkpt>
      <trkpt lat="50.39720000" lon="12.97640000">
        <ele>1134.0000</ele>
        <time>2010-01-01T00:04:14Z</time>
      </trkpt>
      <trkpt lat="50.39738000" lon="12.97669000">
        <ele>1129.0000</ele>
        <time>2010-01-01T00:04:25Z</time>
      </trkpt>
      <trkpt lat="50.39786000" lon="12.97725000">
        <ele>1130.0000</ele>
        <time>2010-01-01T00:04:49Z</time>
      </trkpt>
      <trkpt lat="50.39862000" lon="12.97860000">
        <ele>1115.0000</ele>
        <time>2010-01-01T00:05:35Z</time>
      </trkpt>
      <trkpt lat="50.39892000" lon="12.97888000">
        <ele>1109.0000</ele>
        <time>2010-01-01T00:05:49Z</time>
      </trkpt>
      <trkpt lat="50.39904000" lon="12.97897000">
        <ele>1107.0000</ele>
        <time>2010-01-01T00:05:54Z</time>
      </trkpt>
      <trkpt lat="50.39947000" lon="12.97916000">
        <ele>1099.0000</ele>
        <time>2010-01-01T00:06:12Z</time>
      </trkpt>
      <trkpt lat="50.39944000" lon="12.97918000">
        <ele>1099.0000</ele>
        <time>2010-01-01T00:06:13Z</time>
      </trkpt>
      <trkpt lat="50.39944000" lon="12.97919000">
        <ele>1099.0000</ele>
        <time>2010-01-01T00:06:13Z</time>
      </trkpt>
      <trkpt lat="50.39962000" lon="12.97912000">
        <ele>1096.0000</ele>
        <time>2010-01-01T00:06:21Z</time>
      </trkpt>
      <trkpt lat="50.39982000" lon="12.97894000">
        <ele>1092.0000</ele>
        <time>2010-01-01T00:06:30Z</time>
      </trkpt>
      <trkpt lat="50.40020000" lon="12.97844000">
        <ele>1087.0000</ele>
        <time>2010-01-01T00:06:50Z</time>
      </trkpt>
      <trkpt lat="50.40022000" lon="12.97844000">
        <ele>1086.0000</ele>
        <time>2010-01-01T00:06:51Z</time>
      </trkpt>
      <trkpt lat="50.40042000" lon="12.97843000">
        <ele>1081.0000</ele>
        <time>2010-01-01T00:06:59Z</time>
      </trkpt>
      <trkpt lat="50.40064000" lon="12.97851000">
        <ele>1076.0000</ele>
        <time>2010-01-01T00:07:08Z</time>
      </trkpt>
      <trkpt lat="50.40086000" lon="12.97871000">
        <ele>1071.0000</ele>
        <time>2010-01-01T00:07:18Z</time>
      </trkpt>
      <trkpt lat="50.40107000" lon="12.97910000">
        <ele>1066.0000</ele>
        <time>2010-01-01T00:07:31Z</time>
      </trkpt>
      <trkpt lat="50.40125000" lon="12.97931000">
        <ele>1061.0000</ele>
        <time>2010-01-01T00:07:40Z</time>
      </trkpt>
      <trkpt lat="50.40216000" lon="12.98002000">
        <ele>1036.0000</ele>
        <time>2010-01-01T00:08:21Z</time>
      </trkpt>
      <trkpt lat="50.40216000" lon="12.98001000">
        <ele>1036.0000</ele>
        <time>2010-01-01T00:08:21Z</time>
      </trkpt>
      <trkpt lat="50.40220000" lon="12.98005000">
        <ele>1035.0000</ele>
        <time>2010-01-01T00:08:23Z</time>
      </trkpt>
      <trkpt lat="50.40222000" lon="12.98017000">
        <ele>1035.0000</ele>
        <time>2010-01-01T00:08:26Z</time>
      </trkpt>
      <trkpt lat="50.40262000" lon="12.98104000">
        <ele>1024.0000</ele>
        <time>2010-01-01T00:08:53Z</time>
      </trkpt>
      <trkpt lat="50.40269000" lon="12.98114000">
        <ele>1021.0000</ele>
        <time>2010-01-01T00:08:57Z</time>
      </trkpt>
      <trkpt lat="50.40275000" lon="12.98119000">
        <ele>1020.0000</ele>
        <time>2010-01-01T00:09:00Z</time>
      </trkpt>
      <trkpt lat="50.40282000" lon="12.98121000">
        <ele>1018.0000</ele>
        <time>2010-01-01T00:09:03Z</time>
      </trkpt>
      <trkpt lat="50.40294000" lon="12.98119000">
        <ele>1015.0000</ele>
        <time>2010-01-01T00:09:08Z</time>
      </trkpt>
      <trkpt lat="50.40335000" lon="12.98079000">
        <ele>1011.0000</ele>
        <time>2010-01-01T00:09:27Z</time>
      </trkpt>
      <trkpt lat="50.40335000" lon="12.98080000">
        <ele>1011.0000</ele>
        <time>2010-01-01T00:09:27Z</time>
      </trkpt>
      <trkpt lat="50.40340000" lon="12.98075000">
        <ele>1010.0000</ele>
        <time>2010-01-01T00:09:29Z</time>
      </trkpt>
      <trkpt lat="50.40345000" lon="12.98088000">
        <ele>1010.0000</ele>
        <time>2010-01-01T00:09:33Z</time>
      </trkpt>
      <trkpt lat="50.40362000" lon="12.98145000">
        <ele>1007.0000</ele>
        <time>2010-01-01T00:09:49Z</time>
      </trkpt>
      <trkpt lat="50.40367000" lon="12.98169000">
        <ele>1006.0000</ele>
        <time>2010-01-01T00:09:56Z</time>
      </trkpt>
      <trkpt lat="50.40375000" lon="12.98255000">
        <ele>1003.0000</ele>
        <time>2010-01-01T00:10:18Z</time>
      </trkpt>
      <trkpt lat="50.40384000" lon="12.98383000">
        <ele>995.00000</ele>
        <time>2010-01-01T00:10:51Z</time>
      </trkpt>
      <trkpt lat="50.40321000" lon="12.98567000">
        <ele>988.00000</ele>
        <time>2010-01-01T00:11:44Z</time>
      </trkpt>
      <trkpt lat="50.40304000" lon="12.98629000">
        <ele>988.00000</ele>
        <time>2010-01-01T00:12:01Z</time>
      </trkpt>
      <trkpt lat="50.40298000" lon="12.98661000">
        <ele>991.00000</ele>
        <time>2010-01-01T00:12:10Z</time>
      </trkpt>
      <trkpt lat="50.40300000" lon="12.98663000">
        <ele>991.00000</ele>
        <time>2010-01-01T00:12:11Z</time>
      </trkpt>
      <trkpt lat="50.40299000" lon="12.98663000">
        <ele>991.00000</ele>
        <time>2010-01-01T00:12:11Z</time>
      </trkpt>
      <trkpt lat="50.40359000" lon="12.98770000">
        <ele>983.00000</ele>
        <time>2010-01-01T00:12:48Z</time>
      </trkpt>
      <trkpt lat="50.40380000" lon="12.98793000">
        <ele>982.00000</ele>
        <time>2010-01-01T00:12:58Z</time>
      </trkpt>
      <trkpt lat="50.40486000" lon="12.98849000">
        <ele>976.00000</ele>
        <time>2010-01-01T00:13:43Z</time>
      </trkpt>
      <trkpt lat="50.40618000" lon="12.98854000">
        <ele>965.00000</ele>
        <time>2010-01-01T00:14:35Z</time>
      </trkpt>
      <trkpt lat="50.40705000" lon="12.98929000">
        <ele>960.00000</ele>
        <time>2010-01-01T00:15:15Z</time>
      </trkpt>
      <trkpt lat="50.40728000" lon="12.99002000">
        <ele>956.00000</ele>
        <time>2010-01-01T00:15:36Z</time>
      </trkpt>
      <trkpt lat="50.40740000" lon="12.99016000">
        <ele>955.00000</ele>
        <time>2010-01-01T00:15:42Z</time>
      </trkpt>
      <trkpt lat="50.40868000" lon="12.99054000">
        <ele>947.00000</ele>
        <time>2010-01-01T00:16:34Z</time>
      </trkpt>
      <trkpt lat="50.40909000" lon="12.99091000">
        <ele>947.00000</ele>
        <time>2010-01-01T00:16:53Z</time>
      </trkpt>
      <trkpt lat="50.40984000" lon="12.99185000">
        <ele>945.00000</ele>
        <time>2010-01-01T00:17:31Z</time>
      </trkpt>
      <trkpt lat="50.41036000" lon="12.99279000">
        <ele>945.00000</ele>
        <time>2010-01-01T00:18:03Z</time>
      </trkpt>
      <trkpt lat="50.41058000" lon="12.99300000">
        <ele>943.00000</ele>
        <time>2010-01-01T00:18:14Z</time>
      </trkpt>
      <trkpt lat="50.41183000" lon="12.99483000">
        <ele>934.00000</ele>
        <time>2010-01-01T00:19:22Z</time>
      </trkpt>
      <trkpt lat="50.41226000" lon="12.99515000">
        <ele>935.00000</ele>
        <time>2010-01-01T00:19:41Z</time>
      </trkpt>
      <trkpt lat="50.41307000" lon="12.99532000">
        <ele>932.00000</ele>
        <time>2010-01-01T00:20:14Z</time>
      </trkpt>
      <trkpt lat="50.41330000" lon="12.99544000">
        <ele>931.00000</ele>
        <time>2010-01-01T00:20:23Z</time>
      </trkpt>
      <trkpt lat="50.41330000" lon="12.99543000">
        <ele>931.00000</ele>
        <time>2010-01-01T00:20:24Z</time>
      </trkpt>
      <trkpt lat="50.41347000" lon="12.99559000">
        <ele>930.00000</ele>
        <time>2010-01-01T00:20:32Z</time>
      </trkpt>
      <trkpt lat="50.41382000" lon="12.99633000">
        <ele>931.00000</ele>
        <time>2010-01-01T00:20:55Z</time>
      </trkpt>
      <trkpt lat="50.41397000" lon="12.99646000">
        <ele>932.00000</ele>
        <time>2010-01-01T00:21:02Z</time>
      </trkpt>
      <trkpt lat="50.41507000" lon="12.99679000">
        <ele>932.00000</ele>
        <time>2010-01-01T00:21:47Z</time>
      </trkpt>
      <trkpt lat="50.41574000" lon="12.99677000">
        <ele>927.00000</ele>
        <time>2010-01-01T00:22:14Z</time>
      </trkpt>
      <trkpt lat="50.41636000" lon="12.99694000">
        <ele>922.00000</ele>
        <time>2010-01-01T00:22:39Z</time>
      </trkpt>
      <trkpt lat="50.41679000" lon="12.99698000">
        <ele>921.00000</ele>
        <time>2010-01-01T00:22:56Z</time>
      </trkpt>
      <trkpt lat="50.41759000" lon="12.99683000">
        <ele>917.00000</ele>
        <time>2010-01-01T00:23:28Z</time>
      </trkpt>
      <trkpt lat="50.41844000" lon="12.99666000">
        <ele>913.00000</ele>
        <time>2010-01-01T00:24:03Z</time>
      </trkpt>
      <trkpt lat="50.41886000" lon="12.99671000">
        <ele>908.00000</ele>
        <time>2010-01-01T00:24:20Z</time>
      </trkpt>
      <trkpt lat="50.41947000" lon="12.99701000">
        <ele>910.00000</ele>
        <time>2010-01-01T00:24:45Z</time>
      </trkpt>
      <trkpt lat="50.42019000" lon="12.99761000">
        <ele>913.00000</ele>
        <time>2010-01-01T00:25:18Z</time>
      </trkpt>
      <trkpt lat="50.42019000" lon="12.99760000">
        <ele>913.00000</ele>
        <time>2010-01-01T00:25:18Z</time>
      </trkpt>
      <trkpt lat="50.42024000" lon="12.99765000">
        <ele>913.00000</ele>
        <time>2010-01-01T00:25:20Z</time>
      </trkpt>
      <trkpt lat="50.42056000" lon="12.99822000">
        <ele>917.00000</ele>
        <time>2010-01-01T00:25:40Z</time>
      </trkpt>
      <trkpt lat="50.42089000" lon="12.99868000">
        <ele>916.00000</ele>
        <time>2010-01-01T00:25:57Z</time>
      </trkpt>
      <trkpt lat="50.42160000" lon="12.99956000">
        <ele>922.00000</ele>
        <time>2010-01-01T00:26:34Z</time>
      </trkpt>
      <trkpt lat="50.42227000" lon="13.00081000">
        <ele>931.00000</ele>
        <time>2010-01-01T00:27:15Z</time>
      </trkpt>
      <trkpt lat="50.42293000" lon="13.00191000">
        <ele>932.00000</ele>
        <time>2010-01-01T00:27:54Z</time>
      </trkpt>
      <trkpt lat="50.42347000" lon="13.00356000">
        <ele>939.00000</ele>
        <time>2010-01-01T00:28:41Z</time>
      </trkpt>
      <trkpt lat="50.42397000" lon="13.00494000">
        <ele>942.00000</ele>
        <time>2010-01-01T00:29:22Z</time>
      </trkpt>
      <trkpt lat="50.42422000" lon="13.00556000">
        <ele>946.00000</ele>
        <time>2010-01-01T00:29:40Z</time>
      </trkpt>
      <trkpt lat="50.42455000" lon="13.00668000">
        <ele>948.00000</ele>
        <time>2010-01-01T00:30:12Z</time>
      </trkpt>
      <trkpt lat="50.42455000" lon="13.00667000">
        <ele>948.00000</ele>
        <time>2010-01-01T00:30:12Z</time>
      </trkpt>
      <trkpt lat="50.42457000" lon="13.00674000">
        <ele>949.00000</ele>
        <time>2010-01-01T00:30:14Z</time>
      </trkpt>
      <trkpt lat="50.42450000" lon="13.00833000">
        <ele>953.00000</ele>
        <time>2010-01-01T00:30:55Z</time>
      </trkpt>
      <trkpt lat="50.42439000" lon="13.00933000">
        <ele>953.00000</ele>
        <time>2010-01-01T00:31:21Z</time>
      </trkpt>
      <trkpt lat="50.42395000" lon="13.01035000">
        <ele>951.00000</ele>
        <time>2010-01-01T00:31:52Z</time>
      </trkpt>
      <trkpt lat="50.42387000" lon="13.01100000">
        <ele>948.00000</ele>
        <time>2010-01-01T00:32:09Z</time>
      </trkpt>
      <trkpt lat="50.42365000" lon="13.01133000">
        <ele>947.00000</ele>
        <time>2010-01-01T00:32:21Z</time>
      </trkpt>
      <trkpt lat="50.42338000" lon="13.01162000">
        <ele>945.00000</ele>
        <time>2010-01-01T00:32:34Z</time>
      </trkpt>
      <trkpt lat="50.42300000" lon="13.01174000">
        <ele>942.00000</ele>
        <time>2010-01-01T00:32:50Z</time>
      </trkpt>
      <trkpt lat="50.42198000" lon="13.01186000">
        <ele>937.00000</ele>
        <time>2010-01-01T00:33:31Z</time>
      </trkpt>
      <trkpt lat="50.42170000" lon="13.01184000">
        <ele>937.00000</ele>
        <time>2010-01-01T00:33:42Z</time>
      </trkpt>
      <trkpt lat="50.42169000" lon="13.01188000">
        <ele>937.00000</ele>
        <time>2010-01-01T00:33:43Z</time>
      </trkpt>
      <trkpt lat="50.42161000" lon="13.01227000">
        <ele>933.00000</ele>
        <time>2010-01-01T00:33:53Z</time>
      </trkpt>
      <trkpt lat="50.42210000" lon="13.01252000">
        <ele>931.00000</ele>
        <time>2010-01-01T00:34:14Z</time>
      </trkpt>
      <trkpt lat="50.42315000" lon="13.01361000">
        <ele>923.00000</ele>
        <time>2010-01-01T00:35:04Z</time>
      </trkpt>
      <trkpt lat="50.42364000" lon="13.01432000">
        <ele>919.00000</ele>
        <time>2010-01-01T00:35:31Z</time>
      </trkpt>
      <trkpt lat="50.42407000" lon="13.01538000">
        <ele>912.00000</ele>
        <time>2010-01-01T00:36:03Z</time>
      </trkpt>
      <trkpt lat="50.42480000" lon="13.01745000">
        <ele>895.00000</ele>
        <time>2010-01-01T00:37:03Z</time>
      </trkpt>
      <trkpt lat="50.42542000" lon="13.01990000">
        <ele>884.00000</ele>
        <time>2010-01-01T00:38:11Z</time>
      </trkpt>
      <trkpt lat="50.42584000" lon="13.02094000">
        <ele>876.00000</ele>
        <time>2010-01-01T00:38:42Z</time>
      </trkpt>
      <trkpt lat="50.42677000" lon="13.02236000">
        <ele>867.00000</ele>
        <time>2010-01-01T00:39:34Z</time>
      </trkpt>
      <trkpt lat="50.42702000" lon="13.02251000">
        <ele>864.00000</ele>
        <time>2010-01-01T00:39:45Z</time>
      </trkpt>
      <trkpt lat="50.42711000" lon="13.02263000">
        <ele>863.00000</ele>
        <time>2010-01-01T00:39:49Z</time>
      </trkpt>
      <trkpt lat="50.42711000" lon="13.02281000">
        <ele>862.00000</ele>
        <time>2010-01-01T00:39:54Z</time>
      </trkpt>
      <trkpt lat="50.42698000" lon="13.02294000">
        <ele>862.00000</ele>
        <time>2010-01-01T00:40:00Z</time>
      </trkpt>
      <trkpt lat="50.42671000" lon="13.02296000">
        <ele>863.00000</ele>
        <time>2010-01-01T00:40:11Z</time>
      </trkpt>
      <trkpt lat="50.42657000" lon="13.02308000">
        <ele>862.00000</ele>
        <time>2010-01-01T00:40:17Z</time>
      </trkpt>
      <trkpt lat="50.42657000" lon="13.02307000">
        <ele>862.00000</ele>
        <time>2010-01-01T00:40:18Z</time>
      </trkpt>
      <trkpt lat="50.42658000" lon="13.02307000">
        <ele>862.00000</ele>
        <time>2010-01-01T00:40:18Z</time>
      </trkpt>
      <trkpt lat="50.42635000" lon="13.02340000">
        <ele>860.00000</ele>
        <time>2010-01-01T00:40:31Z</time>
      </trkpt>
      <trkpt lat="50.42625000" lon="13.02360000">
        <ele>862.00000</ele>
        <time>2010-01-01T00:40:37Z</time>
      </trkpt>
      <trkpt lat="50.42624000" lon="13.02360000">
        <ele>862.00000</ele>
        <time>2010-01-01T00:40:37Z</time>
      </trkpt>
      <trkpt lat="50.42604000" lon="13.02355000">
        <ele>864.00000</ele>
        <time>2010-01-01T00:40:46Z</time>
      </trkpt>
      <trkpt lat="50.42580000" lon="13.02358000">
        <ele>867.00000</ele>
        <time>2010-01-01T00:40:55Z</time>
      </trkpt>
      <trkpt lat="50.42546000" lon="13.02348000">
        <ele>869.00000</ele>
        <time>2010-01-01T00:41:09Z</time>
      </trkpt>
      <trkpt lat="50.42480000" lon="13.02338000">
        <ele>871.00000</ele>
        <time>2010-01-01T00:41:36Z</time>
      </trkpt>
      <trkpt lat="50.42474000" lon="13.02344000">
        <ele>872.00000</ele>
        <time>2010-01-01T00:41:38Z</time>
      </trkpt>
      <trkpt lat="50.42474000" lon="13.02345000">
        <ele>872.00000</ele>
        <time>2010-01-01T00:41:39Z</time>
      </trkpt>
      <trkpt lat="50.42471000" lon="13.02348000">
        <ele>873.00000</ele>
        <time>2010-01-01T00:41:40Z</time>
      </trkpt>
      <trkpt lat="50.42482000" lon="13.02372000">
        <ele>878.00000</ele>
        <time>2010-01-01T00:41:48Z</time>
      </trkpt>
      <trkpt lat="50.42515000" lon="13.02395000">
        <ele>882.00000</ele>
        <time>2010-01-01T00:42:02Z</time>
      </trkpt>
      <trkpt lat="50.42580000" lon="13.02449000">
        <ele>884.00000</ele>
        <time>2010-01-01T00:42:32Z</time>
      </trkpt>
      <trkpt lat="50.42579000" lon="13.02469000">
        <ele>885.00000</ele>
        <time>2010-01-01T00:42:37Z</time>
      </trkpt>
      <trkpt lat="50.42572000" lon="13.02477000">
        <ele>885.00000</ele>
        <time>2010-01-01T00:42:40Z</time>
      </trkpt>
      <trkpt lat="50.42574000" lon="13.02479000">
        <ele>885.00000</ele>
        <time>2010-01-01T00:42:41Z</time>
      </trkpt>
      <trkpt lat="50.42574000" lon="13.02478000">
        <ele>885.00000</ele>
        <time>2010-01-01T00:42:41Z</time>
      </trkpt>
      <trkpt lat="50.42596000" lon="13.02504000">
        <ele>886.00000</ele>
        <time>2010-01-01T00:42:52Z</time>
      </trkpt>
      <trkpt lat="50.42628000" lon="13.02545000">
        <ele>886.00000</ele>
        <time>2010-01-01T00:43:09Z</time>
      </trkpt>
      <trkpt lat="50.42653000" lon="13.02567000">
        <ele>885.00000</ele>
        <time>2010-01-01T00:43:20Z</time>
      </trkpt>
      <trkpt lat="50.42724000" lon="13.02618000">
        <ele>879.00000</ele>
        <time>2010-01-01T00:43:52Z</time>
      </trkpt>
      <trkpt lat="50.42813000" lon="13.02754000">
        <ele>871.00000</ele>
        <time>2010-01-01T00:44:41Z</time>
      </trkpt>
      <trkpt lat="50.42845000" lon="13.02850000">
        <ele>869.00000</ele>
        <time>2010-01-01T00:45:09Z</time>
      </trkpt>
      <trkpt lat="50.42845000" lon="13.02849000">
        <ele>869.00000</ele>
        <time>2010-01-01T00:45:09Z</time>
      </trkpt>
      <trkpt lat="50.42903000" lon="13.03031000">
        <ele>867.00000</ele>
        <time>2010-01-01T00:46:01Z</time>
      </trkpt>
      <trkpt lat="50.42926000" lon="13.03141000">
        <ele>870.00000</ele>
        <time>2010-01-01T00:46:31Z</time>
      </trkpt>
      <trkpt lat="50.42948000" lon="13.03304000">
        <ele>863.00000</ele>
        <time>2010-01-01T00:47:13Z</time>
      </trkpt>
      <trkpt lat="50.42960000" lon="13.03415000">
        <ele>857.00000</ele>
        <time>2010-01-01T00:47:42Z</time>
      </trkpt>
      <trkpt lat="50.42969000" lon="13.03512000">
        <ele>857.00000</ele>
        <time>2010-01-01T00:48:07Z</time>
      </trkpt>
      <trkpt lat="50.43018000" lon="13.03929000">
        <ele>853.00000</ele>
        <time>2010-01-01T00:49:55Z</time>
      </trkpt>
      <trkpt lat="50.43028000" lon="13.03953000">
        <ele>852.00000</ele>
        <time>2010-01-01T00:50:02Z</time>
      </trkpt>
      <trkpt lat="50.43044000" lon="13.03958000">
        <ele>852.00000</ele>
        <time>2010-01-01T00:50:09Z</time>
      </trkpt>
      <trkpt lat="50.43053000" lon="13.03957000">
        <ele>851.00000</ele>
        <time>2010-01-01T00:50:12Z</time>
      </trkpt>
      <trkpt lat="50.43084000" lon="13.03938000">
        <ele>847.00000</ele>
        <time>2010-01-01T00:50:26Z</time>
      </trkpt>
      <trkpt lat="50.43088000" lon="13.03935000">
        <ele>847.00000</ele>
        <time>2010-01-01T00:50:28Z</time>
      </trkpt>
      <trkpt lat="50.43105000" lon="13.03944000">
        <ele>843.00000</ele>
        <time>2010-01-01T00:50:35Z</time>
      </trkpt>
      <trkpt lat="50.43163000" lon="13.04002000">
        <ele>836.00000</ele>
        <time>2010-01-01T00:51:02Z</time>
      </trkpt>
      <trkpt lat="50.43214000" lon="13.04078000">
        <ele>832.00000</ele>
        <time>2010-01-01T00:51:30Z</time>
      </trkpt>
      <trkpt lat="50.43227000" lon="13.04124000">
        <ele>833.00000</ele>
        <time>2010-01-01T00:51:43Z</time>
      </trkpt>
      <trkpt lat="50.43233000" lon="13.04178000">
        <ele>830.00000</ele>
        <time>2010-01-01T00:51:57Z</time>
      </trkpt>
      <trkpt lat="50.43235000" lon="13.04408000">
        <ele>827.00000</ele>
        <time>2010-01-01T00:52:56Z</time>
      </trkpt>
      <trkpt lat="50.43243000" lon="13.04434000">
        <ele>826.00000</ele>
        <time>2010-01-01T00:53:03Z</time>
      </trkpt>
      <trkpt lat="50.43252000" lon="13.04455000">
        <ele>825.00000</ele>
        <time>2010-01-01T00:53:10Z</time>
      </trkpt>
      <trkpt lat="50.43255000" lon="13.04457000">
        <ele>825.00000</ele>
        <time>2010-01-01T00:53:11Z</time>
      </trkpt>
      <trkpt lat="50.43254000" lon="13.04457000">
        <ele>825.00000</ele>
        <time>2010-01-01T00:53:11Z</time>
      </trkpt>
      <trkpt lat="50.43274000" lon="13.04478000">
        <ele>823.00000</ele>
        <time>2010-01-01T00:53:21Z</time>
      </trkpt>
      <trkpt lat="50.43337000" lon="13.04624000">
        <ele>819.00000</ele>
        <time>2010-01-01T00:54:06Z</time>
      </trkpt>
      <trkpt lat="50.43417000" lon="13.04829000">
        <ele>824.00000</ele>
        <time>2010-01-01T00:55:07Z</time>
      </trkpt>
      <trkpt lat="50.43428000" lon="13.04855000">
        <ele>824.00000</ele>
        <time>2010-01-01T00:55:15Z</time>
      </trkpt>
      <trkpt lat="50.43443000" lon="13.04872000">
        <ele>825.00000</ele>
        <time>2010-01-01T00:55:23Z</time>
      </trkpt>
      <trkpt lat="50.43451000" lon="13.04876000">
        <ele>825.00000</ele>
        <time>2010-01-01T00:55:26Z</time>
      </trkpt>
      <trkpt lat="50.43455000" lon="13.04889000">
        <ele>824.00000</ele>
        <time>2010-01-01T00:55:30Z</time>
      </trkpt>
      <trkpt lat="50.43520000" lon="13.05075000">
        <ele>823.00000</ele>
        <time>2010-01-01T00:56:24Z</time>
      </trkpt>
      <trkpt lat="50.43536000" lon="13.05107000">
        <ele>823.00000</ele>
        <time>2010-01-01T00:56:34Z</time>
      </trkpt>
      <trkpt lat="50.43552000" lon="13.05132000">
        <ele>823.00000</ele>
        <time>2010-01-01T00:56:43Z</time>
      </trkpt>
      <trkpt lat="50.43552000" lon="13.05131000">
        <ele>823.00000</ele>
        <time>2010-01-01T00:56:43Z</time>
      </trkpt>
      <trkpt lat="50.43572000" lon="13.05152000">
        <ele>824.00000</ele>
        <time>2010-01-01T00:56:53Z</time>
      </trkpt>
      <trkpt lat="50.43597000" lon="13.05170000">
        <ele>824.00000</ele>
        <time>2010-01-01T00:57:04Z</time>
      </trkpt>
      <trkpt lat="50.43664000" lon="13.05213000">
        <ele>821.00000</ele>
        <time>2010-01-01T00:57:33Z</time>
      </trkpt>
      <trkpt lat="50.43747000" lon="13.05261000">
        <ele>816.00000</ele>
        <time>2010-01-01T00:58:08Z</time>
      </trkpt>
      <trkpt lat="50.43801000" lon="13.05313000">
        <ele>820.00000</ele>
        <time>2010-01-01T00:58:34Z</time>
      </trkpt>
      <trkpt lat="50.43800000" lon="13.05313000">
        <ele>820.00000</ele>
        <time>2010-01-01T00:58:34Z</time>
      </trkpt>
      <trkpt lat="50.43890000" lon="13.05396000">
        <ele>818.00000</ele>
        <time>2010-01-01T00:59:16Z</time>
      </trkpt>
      <trkpt lat="50.43987000" lon="13.05480000">
        <ele>817.00000</ele>
        <time>2010-01-01T01:00:00Z</time>
      </trkpt>
      <trkpt lat="50.44022000" lon="13.05504000">
        <ele>816.00000</ele>
        <time>2010-01-01T01:00:16Z</time>
      </trkpt>
      <trkpt lat="50.44021000" lon="13.05507000">
        <ele>816.00000</ele>
        <time>2010-01-01T01:00:16Z</time>
      </trkpt>
      <trkpt lat="50.44022000" lon="13.05504000">
        <ele>816.00000</ele>
        <time>2010-01-01T01:00:17Z</time>
      </trkpt>
      <trkpt lat="50.44049000" lon="13.05512000">
        <ele>815.00000</ele>
        <time>2010-01-01T01:00:28Z</time>
      </trkpt>
      <trkpt lat="50.44115000" lon="13.05483000">
        <ele>813.00000</ele>
        <time>2010-01-01T01:00:56Z</time>
      </trkpt>
      <trkpt lat="50.44159000" lon="13.05473000">
        <ele>814.00000</ele>
        <time>2010-01-01T01:01:14Z</time>
      </trkpt>
      <trkpt lat="50.44182000" lon="13.05496000">
        <ele>815.00000</ele>
        <time>2010-01-01T01:01:24Z</time>
      </trkpt>
      <trkpt lat="50.44210000" lon="13.05544000">
        <ele>814.00000</ele>
        <time>2010-01-01T01:01:41Z</time>
      </trkpt>
      <trkpt lat="50.44258000" lon="13.05596000">
        <ele>816.00000</ele>
        <time>2010-01-01T01:02:04Z</time>
      </trkpt>
      <trkpt lat="50.44342000" lon="13.05640000">
        <ele>818.00000</ele>
        <time>2010-01-01T01:02:40Z</time>
      </trkpt>
      <trkpt lat="50.44658000" lon="13.05778000">
        <ele>803.00000</ele>
        <time>2010-01-01T01:04:51Z</time>
      </trkpt>
      <trkpt lat="50.44749000" lon="13.05768000">
        <ele>805.00000</ele>
        <time>2010-01-01T01:05:28Z</time>
      </trkpt>
      <trkpt lat="50.44842000" lon="13.05808000">
        <ele>808.00000</ele>
        <time>2010-01-01T01:06:06Z</time>
      </trkpt>
      <trkpt lat="50.44842000" lon="13.05807000">
        <ele>808.00000</ele>
        <time>2010-01-01T01:06:07Z</time>
      </trkpt>
      <trkpt lat="50.44959000" lon="13.05858000">
        <ele>809.00000</ele>
        <time>2010-01-01T01:06:55Z</time>
      </trkpt>
      <trkpt lat="50.45063000" lon="13.05955000">
        <ele>802.00000</ele>
        <time>2010-01-01T01:07:44Z</time>
      </trkpt>
      <trkpt lat="50.45206000" lon="13.06055000">
        <ele>794.00000</ele>
        <time>2010-01-01T01:08:46Z</time>
      </trkpt>
      <trkpt lat="50.45209000" lon="13.06055000">
        <ele>794.00000</ele>
        <time>2010-01-01T01:08:47Z</time>
      </trkpt>
      <trkpt lat="50.45208000" lon="13.06055000">
        <ele>794.00000</ele>
        <time>2010-01-01T01:08:48Z</time>
      </trkpt>
      <trkpt lat="50.45220000" lon="13.06056000">
        <ele>793.00000</ele>
        <time>2010-01-01T01:08:53Z</time>
      </trkpt>
      <trkpt lat="50.45231000" lon="13.06050000">
        <ele>791.00000</ele>
        <time>2010-01-01T01:08:57Z</time>
      </trkpt>
      <trkpt lat="50.45246000" lon="13.06037000">
        <ele>790.00000</ele>
        <time>2010-01-01T01:09:04Z</time>
      </trkpt>
      <trkpt lat="50.45281000" lon="13.05996000">
        <ele>786.00000</ele>
        <time>2010-01-01T01:09:22Z</time>
      </trkpt>
      <trkpt lat="50.45295000" lon="13.05993000">
        <ele>786.00000</ele>
        <time>2010-01-01T01:09:27Z</time>
      </trkpt>
      <trkpt lat="50.45310000" lon="13.05998000">
        <ele>787.00000</ele>
        <time>2010-01-01T01:09:33Z</time>
      </trkpt>
      <trkpt lat="50.45333000" lon="13.06029000">
        <ele>788.00000</ele>
        <time>2010-01-01T01:09:46Z</time>
      </trkpt>
      <trkpt lat="50.45360000" lon="13.06044000">
        <ele>789.00000</ele>
        <time>2010-01-01T01:09:57Z</time>
      </trkpt>
      <trkpt lat="50.45380000" lon="13.06045000">
        <ele>789.00000</ele>
        <time>2010-01-01T01:10:05Z</time>
      </trkpt>
      <trkpt lat="50.45548000" lon="13.06037000">
        <ele>788.00000</ele>
        <time>2010-01-01T01:11:12Z</time>
      </trkpt>
      <trkpt lat="50.45704000" lon="13.06048000">
        <ele>789.00000</ele>
        <time>2010-01-01T01:12:15Z</time>
      </trkpt>
      <trkpt lat="50.45833000" lon="13.06134000">
        <ele>775.00000</ele>
        <time>2010-01-01T01:13:11Z</time>
      </trkpt>
      <trkpt lat="50.45900000" lon="13.06169000">
        <ele>776.00000</ele>
        <time>2010-01-01T01:13:39Z</time>
      </trkpt>
      <trkpt lat="50.45909000" lon="13.06184000">
        <ele>776.00000</ele>
        <time>2010-01-01T01:13:44Z</time>
      </trkpt>
      <trkpt lat="50.45915000" lon="13.06215000">
        <ele>776.00000</ele>
        <time>2010-01-01T01:13:53Z</time>
      </trkpt>
      <trkpt lat="50.45916000" lon="13.06291000">
        <ele>774.00000</ele>
        <time>2010-01-01T01:14:12Z</time>
      </trkpt>
      <trkpt lat="50.45923000" lon="13.06312000">
        <ele>774.00000</ele>
        <time>2010-01-01T01:14:18Z</time>
      </trkpt>
      <trkpt lat="50.45965000" lon="13.06374000">
        <ele>774.00000</ele>
        <time>2010-01-01T01:14:41Z</time>
      </trkpt>
      <trkpt lat="50.46002000" lon="13.06387000">
        <ele>774.00000</ele>
        <time>2010-01-01T01:14:56Z</time>
      </trkpt>
      <trkpt lat="50.46080000" lon="13.06401000">
        <ele>773.00000</ele>
        <time>2010-01-01T01:15:28Z</time>
      </trkpt>
      <trkpt lat="50.46173000" lon="13.06411000">
        <ele>768.00000</ele>
        <time>2010-01-01T01:16:05Z</time>
      </trkpt>
      <trkpt lat="50.46215000" lon="13.06433000">
        <ele>769.00000</ele>
        <time>2010-01-01T01:16:23Z</time>
      </trkpt>
      <trkpt lat="50.46434000" lon="13.06489000">
        <ele>764.00000</ele>
        <time>2010-01-01T01:17:52Z</time>
      </trkpt>
      <trkpt lat="50.46480000" lon="13.06492000">
        <ele>764.00000</ele>
        <time>2010-01-01T01:18:10Z</time>
      </trkpt>
      <trkpt lat="50.46568000" lon="13.06490000">
        <ele>762.00000</ele>
        <time>2010-01-01T01:18:45Z</time>
      </trkpt>
      <trkpt lat="50.46612000" lon="13.06495000">
        <ele>762.00000</ele>
        <time>2010-01-01T01:19:03Z</time>
      </trkpt>
      <trkpt lat="50.46687000" lon="13.06513000">
        <ele>763.00000</ele>
        <time>2010-01-01T01:19:33Z</time>
      </trkpt>
      <trkpt lat="50.46731000" lon="13.06527000">
        <ele>768.00000</ele>
        <time>2010-01-01T01:19:51Z</time>
      </trkpt>
      <trkpt lat="50.46805000" lon="13.06572000">
        <ele>765.00000</ele>
        <time>2010-01-01T01:20:23Z</time>
      </trkpt>
      <trkpt lat="50.46837000" lon="13.06597000">
        <ele>760.00000</ele>
        <time>2010-01-01T01:20:37Z</time>
      </trkpt>
      <trkpt lat="50.46874000" lon="13.06609000">
        <ele>759.00000</ele>
        <time>2010-01-01T01:20:52Z</time>
      </trkpt>
      <trkpt lat="50.46918000" lon="13.06632000">
        <ele>757.00000</ele>
        <time>2010-01-01T01:21:11Z</time>
      </trkpt>
      <trkpt lat="50.46961000" lon="13.06665000">
        <ele>758.00000</ele>
        <time>2010-01-01T01:21:30Z</time>
      </trkpt>
      <trkpt lat="50.47097000" lon="13.06721000">
        <ele>759.00000</ele>
        <time>2010-01-01T01:22:26Z</time>
      </trkpt>
      <trkpt lat="50.47240000" lon="13.06763000">
        <ele>749.00000</ele>
        <time>2010-01-01T01:23:25Z</time>
      </trkpt>
      <trkpt lat="50.47278000" lon="13.06799000">
        <ele>748.00000</ele>
        <time>2010-01-01T01:23:42Z</time>
      </trkpt>
      <trkpt lat="50.47277000" lon="13.06799000">
        <ele>748.00000</ele>
        <time>2010-01-01T01:23:43Z</time>
      </trkpt>
      <trkpt lat="50.47281000" lon="13.06802000">
        <ele>748.00000</ele>
        <time>2010-01-01T01:23:45Z</time>
      </trkpt>
      <trkpt lat="50.47303000" lon="13.06837000">
        <ele>750.00000</ele>
        <time>2010-01-01T01:23:57Z</time>
      </trkpt>
      <trkpt lat="50.47380000" lon="13.06926000">
        <ele>748.00000</ele>
        <time>2010-01-01T01:24:35Z</time>
      </trkpt>
      <trkpt lat="50.47536000" lon="13.06975000">
        <ele>760.00000</ele>
        <time>2010-01-01T01:25:39Z</time>
      </trkpt>
      <trkpt lat="50.47728000" lon="13.07031000">
        <ele>751.00000</ele>
        <time>2010-01-01T01:26:57Z</time>
      </trkpt>
      <trkpt lat="50.47784000" lon="13.07043000">
        <ele>750.00000</ele>
        <time>2010-01-01T01:27:20Z</time>
      </trkpt>
      <trkpt lat="50.47879000" lon="13.07007000">
        <ele>744.00000</ele>
        <time>2010-01-01T01:27:59Z</time>
      </trkpt>
      <trkpt lat="50.47977000" lon="13.06952000">
        <ele>745.00000</ele>
        <time>2010-01-01T01:28:41Z</time>
      </trkpt>
      <trkpt lat="50.48056000" lon="13.06927000">
        <ele>749.00000</ele>
        <time>2010-01-01T01:29:13Z</time>
      </trkpt>
      <trkpt lat="50.48104000" lon="13.06933000">
        <ele>746.00000</ele>
        <time>2010-01-01T01:29:32Z</time>
      </trkpt>
      <trkpt lat="50.48183000" lon="13.07001000">
        <ele>742.00000</ele>
        <time>2010-01-01T01:30:08Z</time>
      </trkpt>
      <trkpt lat="50.48203000" lon="13.07006000">
        <ele>742.00000</ele>
        <time>2010-01-01T01:30:16Z</time>
      </trkpt>
      <trkpt lat="50.48202000" lon="13.07006000">
        <ele>742.00000</ele>
        <time>2010-01-01T01:30:17Z</time>
      </trkpt>
      <trkpt lat="50.48249000" lon="13.07018000">
        <ele>741.00000</ele>
        <time>2010-01-01T01:30:36Z</time>
      </trkpt>
      <trkpt lat="50.48299000" lon="13.07051000">
        <ele>740.00000</ele>
        <time>2010-01-01T01:30:58Z</time>
      </trkpt>
      <trkpt lat="50.48369000" lon="13.07056000">
        <ele>737.00000</ele>
        <time>2010-01-01T01:31:26Z</time>
      </trkpt>
      <trkpt lat="50.48516000" lon="13.07083000">
        <ele>737.00000</ele>
        <time>2010-01-01T01:32:25Z</time>
      </trkpt>
      <trkpt lat="50.48668000" lon="13.07136000">
        <ele>728.00000</ele>
        <time>2010-01-01T01:33:27Z</time>
      </trkpt>
      <trkpt lat="50.48853000" lon="13.07212000">
        <ele>738.00000</ele>
        <time>2010-01-01T01:34:44Z</time>
      </trkpt>
      <trkpt lat="50.48899000" lon="13.07251000">
        <ele>737.00000</ele>
        <time>2010-01-01T01:35:05Z</time>
      </trkpt>
      <trkpt lat="50.48898000" lon="13.07251000">
        <ele>736.00000</ele>
        <time>2010-01-01T01:35:05Z</time>
      </trkpt>
      <trkpt lat="50.48902000" lon="13.07254000">
        <ele>737.00000</ele>
        <time>2010-01-01T01:35:07Z</time>
      </trkpt>
      <trkpt lat="50.48905000" lon="13.07356000">
        <ele>737.00000</ele>
        <time>2010-01-01T01:35:33Z</time>
      </trkpt>
      <trkpt lat="50.48912000" lon="13.07449000">
        <ele>736.00000</ele>
        <time>2010-01-01T01:35:57Z</time>
      </trkpt>
      <trkpt lat="50.48921000" lon="13.07508000">
        <ele>733.00000</ele>
        <time>2010-01-01T01:36:12Z</time>
      </trkpt>
      <trkpt lat="50.48935000" lon="13.07567000">
        <ele>729.00000</ele>
        <time>2010-01-01T01:36:28Z</time>
      </trkpt>
      <trkpt lat="50.48975000" lon="13.07698000">
        <ele>723.00000</ele>
        <time>2010-01-01T01:37:05Z</time>
      </trkpt>
      <trkpt lat="50.48979000" lon="13.07741000">
        <ele>722.00000</ele>
        <time>2010-01-01T01:37:16Z</time>
      </trkpt>
      <trkpt lat="50.48980000" lon="13.07781000">
        <ele>720.00000</ele>
        <time>2010-01-01T01:37:26Z</time>
      </trkpt>
      <trkpt lat="50.48980000" lon="13.07780000">
        <ele>720.00000</ele>
        <time>2010-01-01T01:37:27Z</time>
      </trkpt>
      <trkpt lat="50.48980000" lon="13.07783000">
        <ele>720.00000</ele>
        <time>2010-01-01T01:37:27Z</time>
      </trkpt>
      <trkpt lat="50.49021000" lon="13.07780000">
        <ele>720.00000</ele>
        <time>2010-01-01T01:37:44Z</time>
      </trkpt>
      <trkpt lat="50.49076000" lon="13.07797000">
        <ele>722.00000</ele>
        <time>2010-01-01T01:38:06Z</time>
      </trkpt>
      <trkpt lat="50.49118000" lon="13.07808000">
        <ele>726.00000</ele>
        <time>2010-01-01T01:38:23Z</time>
      </trkpt>
      <trkpt lat="50.49149000" lon="13.07808000">
        <ele>725.00000</ele>
        <time>2010-01-01T01:38:36Z</time>
      </trkpt>
      <trkpt lat="50.49169000" lon="13.07800000">
        <ele>724.00000</ele>
        <time>2010-01-01T01:38:44Z</time>
      </trkpt>
      <trkpt lat="50.49232000" lon="13.07766000">
        <ele>731.00000</ele>
        <time>2010-01-01T01:39:11Z</time>
      </trkpt>
      <trkpt lat="50.49231000" lon="13.07765000">
        <ele>731.00000</ele>
        <time>2010-01-01T01:39:11Z</time>
      </trkpt>
      <trkpt lat="50.49256000" lon="13.07772000">
        <ele>730.00000</ele>
        <time>2010-01-01T01:39:21Z</time>
      </trkpt>
      <trkpt lat="50.49313000" lon="13.07799000">
        <ele>729.00000</ele>
        <time>2010-01-01T01:39:45Z</time>
      </trkpt>
      <trkpt lat="50.49373000" lon="13.07824000">
        <ele>730.00000</ele>
        <time>2010-01-01T01:40:10Z</time>
      </trkpt>
      <trkpt lat="50.49431000" lon="13.07875000">
        <ele>725.00000</ele>
        <time>2010-01-01T01:40:37Z</time>
      </trkpt>
      <trkpt lat="50.49503000" lon="13.07950000">
        <ele>716.00000</ele>
        <time>2010-01-01T01:41:11Z</time>
      </trkpt>
      <trkpt lat="50.49579000" lon="13.08025000">
        <ele>714.00000</ele>
        <time>2010-01-01T01:41:47Z</time>
      </trkpt>
      <trkpt lat="50.49595000" lon="13.08050000">
        <ele>713.00000</ele>
        <time>2010-01-01T01:41:56Z</time>
      </trkpt>
      <trkpt lat="50.49608000" lon="13.08083000">
        <ele>713.00000</ele>
        <time>2010-01-01T01:42:06Z</time>
      </trkpt>
      <trkpt lat="50.49620000" lon="13.08141000">
        <ele>712.00000</ele>
        <time>2010-01-01T01:42:22Z</time>
      </trkpt>
      <trkpt lat="50.49654000" lon="13.08229000">
        <ele>712.00000</ele>
        <time>2010-01-01T01:42:48Z</time>
      </trkpt>
      <trkpt lat="50.49661000" lon="13.08262000">
        <ele>712.00000</ele>
        <time>2010-01-01T01:42:57Z</time>
      </trkpt>
      <trkpt lat="50.49661000" lon="13.08261000">
        <ele>712.00000</ele>
        <time>2010-01-01T01:42:57Z</time>
      </trkpt>
      <trkpt lat="50.49662000" lon="13.08266000">
        <ele>712.00000</ele>
        <time>2010-01-01T01:42:58Z</time>
      </trkpt>
      <trkpt lat="50.49679000" lon="13.08288000">
        <ele>712.00000</ele>
        <time>2010-01-01T01:43:07Z</time>
      </trkpt>
      <trkpt lat="50.49712000" lon="13.08312000">
        <ele>711.00000</ele>
        <time>2010-01-01T01:43:22Z</time>
      </trkpt>
      <trkpt lat="50.49746000" lon="13.08326000">
        <ele>709.00000</ele>
        <time>2010-01-01T01:43:36Z</time>
      </trkpt>
      <trkpt lat="50.49763000" lon="13.08327000">
        <ele>710.00000</ele>
        <time>2010-01-01T01:43:43Z</time>
      </trkpt>
      <trkpt lat="50.49788000" lon="13.08318000">
        <ele>712.00000</ele>
        <time>2010-01-01T01:43:53Z</time>
      </trkpt>
      <trkpt lat="50.49801000" lon="13.08310000">
        <ele>713.00000</ele>
        <time>2010-01-01T01:43:58Z</time>
      </trkpt>
      <trkpt lat="50.49826000" lon="13.08284000">
        <ele>714.00000</ele>
        <time>2010-01-01T01:44:10Z</time>
      </trkpt>
      <trkpt lat="50.49901000" lon="13.08272000">
        <ele>717.00000</ele>
        <time>2010-01-01T01:44:41Z</time>
      </trkpt>
      <trkpt lat="50.49914000" lon="13.08273000">
        <ele>717.00000</ele>
        <time>2010-01-01T01:44:46Z</time>
      </trkpt>
      <trkpt lat="50.50025000" lon="13.08307000">
        <ele>724.00000</ele>
        <time>2010-01-01T01:45:31Z</time>
      </trkpt>
    </trkseg>
  </trk>
</gpx>

